createdAt,value
2019-02-09T00:01:41.355Z,4.50
2019-02-09T00:04:11.451Z,8.80
2019-02-09T00:06:45.760Z,5.27
2019-02-09T00:09:14.850Z,6.83
2019-02-09T00:11:43.983Z,5.37
2019-02-09T00:14:14.708Z,4.70
2019-02-09T00:16:46.807Z,4.60
2019-02-09T00:19:15.950Z,5.73
2019-02-09T00:21:47.420Z,6.70
2019-02-09T00:24:16.624Z,5.80
2019-02-09T00:26:49.011Z,5.10
2019-02-09T00:29:18.171Z,8.10
2019-02-09T00:31:47.478Z,5.57
2019-02-09T00:34:17.925Z,3.47
2019-02-09T00:36:48.420Z,5.27
2019-02-09T00:39:17.507Z,4.27
2019-02-09T00:41:46.649Z,5.20
2019-02-09T00:44:15.862Z,4.97
2019-02-09T00:46:45.260Z,6.23
2019-02-09T00:49:14.445Z,8.47
2019-02-09T00:51:43.761Z,4.57
2019-02-09T00:54:12.822Z,6.40
2019-02-09T00:56:42.183Z,5.63
2019-02-09T00:59:11.290Z,5.03
2019-02-09T01:01:40.391Z,4.27
2019-02-09T01:04:09.515Z,7.53
2019-02-09T01:06:38.604Z,6.23
2019-02-09T01:09:12.079Z,7.97
2019-02-09T01:11:41.183Z,8.50
2019-02-09T01:14:10.244Z,7.53
2019-02-09T01:16:39.346Z,8.03
2019-02-09T01:19:08.484Z,3.67
2019-02-09T01:21:37.538Z,5.17
2019-02-09T01:24:21.051Z,4.90
2019-02-09T01:26:45.564Z,5.43
2019-02-09T01:29:14.698Z,6.23
2019-02-09T01:31:45.570Z,5.20
2019-02-09T01:34:17.186Z,5.10
2019-02-09T01:36:47.490Z,6.67
2019-02-09T01:39:16.565Z,7.80
2019-02-09T01:41:45.637Z,7.10
2019-02-09T01:44:14.690Z,6.43
2019-02-09T01:46:43.798Z,3.67
2019-02-09T01:49:12.926Z,9.57
2019-02-09T01:51:41.964Z,6.47
2019-02-09T01:54:11.056Z,5.77
2019-02-09T01:56:41.628Z,7.43
2019-02-09T01:59:10.739Z,8.40
2019-02-09T02:01:39.759Z,5.93
2019-02-09T02:04:08.864Z,6.73
2019-02-09T02:06:37.893Z,6.20
2019-02-09T02:09:08.684Z,6.83
2019-02-09T02:11:37.770Z,5.33
2019-02-09T02:14:06.857Z,4.27
2019-02-09T02:16:35.910Z,7.50
2019-02-09T02:19:07.085Z,5.80
2019-02-09T02:21:36.164Z,7.80
2019-02-09T02:24:05.242Z,5.53
2019-02-09T02:26:34.334Z,3.90
2019-02-09T02:29:03.422Z,7.80
2019-02-09T02:31:32.452Z,8.47
2019-02-09T02:34:01.564Z,7.43
2019-02-09T02:36:30.670Z,7.60
2019-02-09T02:38:59.739Z,8.03
2019-02-09T02:41:28.810Z,4.07
2019-02-09T02:43:57.964Z,7.87
2019-02-09T02:46:27.038Z,5.17
2019-02-09T02:48:56.161Z,5.70
2019-02-09T02:51:25.232Z,6.50
2019-02-09T02:53:54.361Z,6.20
2019-02-09T02:56:23.391Z,7.93
2019-02-09T02:58:53.524Z,5.83
2019-02-09T03:01:22.620Z,8.23
2019-02-09T03:03:51.682Z,7.20
2019-02-09T03:06:22.373Z,6.63
2019-02-09T03:08:51.413Z,6.77
2019-02-09T03:11:20.498Z,6.40
2019-02-09T03:13:49.536Z,5.73
2019-02-09T03:16:18.652Z,11.57
2019-02-09T03:18:47.773Z,6.53
2019-02-09T03:21:16.878Z,6.57
2019-02-09T03:23:45.930Z,6.90
2019-02-09T03:26:15.080Z,10.00
2019-02-09T03:28:44.117Z,5.47
2019-02-09T03:31:13.311Z,5.87
2019-02-09T03:33:42.392Z,4.03
2019-02-09T03:36:11.454Z,6.80
2019-02-09T03:38:40.566Z,7.83
2019-02-09T03:41:10.108Z,6.90
2019-02-09T03:43:39.216Z,7.43
2019-02-09T03:46:08.649Z,6.43
2019-02-09T03:48:37.738Z,10.33
2019-02-09T03:51:06.848Z,6.03
2019-02-09T03:53:35.915Z,7.80
2019-02-09T03:56:05.098Z,6.20
2019-02-09T03:58:34.207Z,6.47
2019-02-09T04:01:03.325Z,5.30
2019-02-09T04:03:32.422Z,6.70
2019-02-09T04:06:01.495Z,5.00
2019-02-09T04:08:30.636Z,5.90
2019-02-09T04:10:59.770Z,5.73
2019-02-09T04:13:28.810Z,6.67
2019-02-09T04:15:57.993Z,6.87
2019-02-09T04:18:27.062Z,6.37
2019-02-09T04:20:56.111Z,9.80
2019-02-09T04:23:25.268Z,8.10
2019-02-09T04:25:54.394Z,7.27
2019-02-09T04:28:23.471Z,5.87
2019-02-09T04:31:05.512Z,7.77
2019-02-09T04:33:27.197Z,5.63
2019-02-09T04:35:57.871Z,4.53
2019-02-09T04:38:28.001Z,3.73
2019-02-09T04:40:57.094Z,4.93
2019-02-09T04:43:27.199Z,4.43
2019-02-09T04:45:56.236Z,2.70
2019-02-09T04:48:25.296Z,2.17
2019-02-09T04:50:54.382Z,3.63
2019-02-09T04:53:23.482Z,6.03
2019-02-09T04:55:52.624Z,2.47
2019-02-09T04:58:21.739Z,3.90
2019-02-09T05:00:50.834Z,2.00
2019-02-09T05:03:19.961Z,3.00
2019-02-09T05:05:49.002Z,1.77
2019-02-09T05:08:18.129Z,2.17
2019-02-09T05:10:47.212Z,3.03
2019-02-09T05:13:18.310Z,3.30
2019-02-09T05:15:48.695Z,3.33
2019-02-09T05:18:17.780Z,3.33
2019-02-09T05:20:46.881Z,4.27
2019-02-09T05:23:16.003Z,2.67
2019-02-09T05:25:48.626Z,2.87
2019-02-09T05:28:17.739Z,3.33
2019-02-09T05:30:46.795Z,2.57
2019-02-09T05:33:17.956Z,2.83
2019-02-09T05:35:47.091Z,3.17
2019-02-09T05:38:16.193Z,3.73
2019-02-09T05:40:45.221Z,4.70
2019-02-09T05:43:14.305Z,4.70
2019-02-09T05:45:43.639Z,2.80
2019-02-09T05:48:12.973Z,4.20
2019-02-09T05:50:42.037Z,2.53
2019-02-09T05:53:11.109Z,4.33
2019-02-09T05:55:40.184Z,4.27
2019-02-09T05:58:09.285Z,3.90
2019-02-09T06:00:41.056Z,4.07
2019-02-09T06:03:10.161Z,3.87
2019-02-09T06:05:39.239Z,2.73
2019-02-09T06:08:08.298Z,3.40
2019-02-09T06:10:37.444Z,5.20
2019-02-09T06:13:06.530Z,2.90
2019-02-09T06:15:35.652Z,2.13
2019-02-09T06:18:04.723Z,4.27
2019-02-09T06:20:33.850Z,2.10
2019-02-09T06:23:02.891Z,4.43
2019-02-09T06:25:32.050Z,3.70
2019-02-09T06:28:01.107Z,4.90
2019-02-09T06:30:30.673Z,5.27
2019-02-09T06:32:59.710Z,2.90
2019-02-09T06:35:30.532Z,3.37
2019-02-09T06:38:00.062Z,4.57
2019-02-09T06:40:29.220Z,5.90
2019-02-09T06:42:59.382Z,7.97
2019-02-09T06:45:30.463Z,7.30
2019-02-09T06:48:18.389Z,7.23
2019-02-09T06:50:47.464Z,5.43
2019-02-09T06:53:16.531Z,5.83
2019-02-09T06:55:45.653Z,5.80
2019-02-09T06:58:14.702Z,6.20
2019-02-09T07:00:58.711Z,9.80
2019-02-09T07:03:27.851Z,5.87
2019-02-09T07:05:58.103Z,4.03
2019-02-09T07:08:31.159Z,5.40
2019-02-09T07:11:00.288Z,6.30
2019-02-09T07:13:40.093Z,9.13
2019-02-09T07:16:09.194Z,6.57
2019-02-09T07:18:39.341Z,12.10
2019-02-09T07:21:08.400Z,11.63
2019-02-09T07:23:37.490Z,7.90
2019-02-09T07:26:06.611Z,6.23
2019-02-09T07:28:35.638Z,9.60
2019-02-09T07:31:04.882Z,8.87
2019-02-09T07:33:33.933Z,8.70
2019-02-09T07:36:03.033Z,6.27
2019-02-09T07:38:33.936Z,11.90
2019-02-09T07:41:03.122Z,8.00
2019-02-09T07:43:32.266Z,13.17
2019-02-09T07:46:01.398Z,10.23
2019-02-09T07:48:30.461Z,8.60
2019-02-09T07:50:59.552Z,9.60
2019-02-09T07:53:28.899Z,8.07
2019-02-09T07:55:58.026Z,8.17
2019-02-09T07:58:29.740Z,9.40
2019-02-09T08:00:58.864Z,10.50
2019-02-09T08:03:27.956Z,6.80
2019-02-09T08:06:00.739Z,12.07
2019-02-09T08:08:32.590Z,11.93
2019-02-09T08:11:08.792Z,7.47
2019-02-09T08:13:35.741Z,15.37
2019-02-09T08:16:04.849Z,10.13
2019-02-09T08:18:43.201Z,7.37
2019-02-09T08:21:12.296Z,7.07
2019-02-09T08:23:41.363Z,8.93
2019-02-09T08:26:10.518Z,9.27
2019-02-09T08:28:39.595Z,9.03
2019-02-09T08:31:08.776Z,7.77
2019-02-09T08:33:37.828Z,9.43
2019-02-09T08:36:06.913Z,5.23
2019-02-09T08:38:35.996Z,15.17
2019-02-09T08:41:05.070Z,13.67
2019-02-09T08:43:34.184Z,13.60
2019-02-09T08:46:03.279Z,12.40
2019-02-09T08:48:34.405Z,8.03
2019-02-09T08:51:07.312Z,10.97
2019-02-09T08:53:36.375Z,8.03
2019-02-09T08:56:05.615Z,9.63
2019-02-09T08:58:34.741Z,12.27
2019-02-09T09:01:03.826Z,8.60
2019-02-09T09:03:32.927Z,9.70
2019-02-09T09:06:04.276Z,7.10
2019-02-09T09:08:33.813Z,9.30
2019-02-09T09:11:02.890Z,9.70
2019-02-09T09:13:33.313Z,7.17
2019-02-09T09:16:05.739Z,8.47
2019-02-09T09:18:36.115Z,7.40
2019-02-09T09:21:05.418Z,12.83
2019-02-09T09:23:34.542Z,14.43
2019-02-09T09:26:03.617Z,9.80
2019-02-09T09:28:32.814Z,9.53
2019-02-09T09:31:04.141Z,8.70
2019-02-09T09:33:34.869Z,9.27
2019-02-09T09:36:04.016Z,11.43
2019-02-09T09:38:34.583Z,15.90
2019-02-09T09:41:03.713Z,12.77
2019-02-09T09:43:34.095Z,10.87
2019-02-09T09:46:03.228Z,10.07
2019-02-09T09:48:32.370Z,7.17
2019-02-09T09:51:01.456Z,11.67
2019-02-09T09:53:30.588Z,5.67
2019-02-09T09:56:00.042Z,11.27
2019-02-09T09:58:31.390Z,12.83
2019-02-09T10:01:00.439Z,7.50
2019-02-09T10:03:29.605Z,7.67
2019-02-09T10:05:58.646Z,7.77
2019-02-09T10:08:27.791Z,11.20
2019-02-09T10:10:58.686Z,8.03
2019-02-09T10:13:27.761Z,11.50
2019-02-09T10:15:57.913Z,11.17
2019-02-09T10:18:27.001Z,9.13
2019-02-09T10:20:57.265Z,14.40
2019-02-09T10:23:26.377Z,11.17
2019-02-09T10:25:56.775Z,11.70
2019-02-09T10:28:26.035Z,12.57
2019-02-09T10:31:01.604Z,7.00
2019-02-09T10:33:36.931Z,8.30
2019-02-09T10:36:14.853Z,10.60
2019-02-09T10:38:47.740Z,6.07
2019-02-09T10:41:16.823Z,8.43
2019-02-09T10:43:45.882Z,8.37
2019-02-09T10:46:15.018Z,13.03
2019-02-09T10:48:49.343Z,10.13
2019-02-09T10:51:18.992Z,10.03
2019-02-09T10:53:49.745Z,9.43
2019-02-09T10:56:20.255Z,7.70
2019-02-09T10:58:50.565Z,10.23
2019-02-09T11:01:21.739Z,11.20
2019-02-09T11:03:51.043Z,13.63
2019-02-09T11:06:20.135Z,13.80
2019-02-09T11:08:49.282Z,9.23
2019-02-09T11:11:18.382Z,8.27
2019-02-09T11:13:48.587Z,11.00
2019-02-09T11:16:23.188Z,9.80
2019-02-09T11:18:53.819Z,11.63
2019-02-09T11:21:26.485Z,9.33
2019-02-09T11:23:55.507Z,9.80
2019-02-09T11:26:26.831Z,13.70
2019-02-09T11:28:55.908Z,15.23
2019-02-09T11:31:25.037Z,16.57
2019-02-09T11:33:54.229Z,11.80
2019-02-09T11:36:25.330Z,11.13
2019-02-09T11:38:54.341Z,9.97
2019-02-09T11:41:23.455Z,14.03
2019-02-09T11:43:52.498Z,11.77
2019-02-09T11:46:21.612Z,18.10
2019-02-09T11:48:50.666Z,10.97
2019-02-09T11:51:22.010Z,10.10
2019-02-09T11:53:51.064Z,11.77
2019-02-09T11:56:20.271Z,7.10
2019-02-09T11:58:49.645Z,7.50
2019-02-09T12:01:18.827Z,9.77
2019-02-09T12:03:51.094Z,8.63
2019-02-09T12:06:21.513Z,6.30
2019-02-09T12:08:50.989Z,6.63
2019-02-09T12:11:20.656Z,7.70
2019-02-09T12:13:55.217Z,6.90
2019-02-09T12:16:21.725Z,7.07
2019-02-09T12:18:52.547Z,6.93
2019-02-09T12:21:21.855Z,5.90
2019-02-09T12:23:51.592Z,8.90
2019-02-09T12:26:22.560Z,11.50
2019-02-09T12:28:52.600Z,4.50
2019-02-09T12:31:25.369Z,5.83
2019-02-09T12:33:57.054Z,3.73
2019-02-09T12:36:26.531Z,6.83
2019-02-09T12:38:59.714Z,10.07
2019-02-09T12:41:29.227Z,7.47
2019-02-09T12:44:01.522Z,7.83
2019-02-09T12:46:32.418Z,13.00
2019-02-09T12:49:02.063Z,9.17
2019-02-09T12:51:31.695Z,8.27
2019-02-09T12:54:01.130Z,8.23
2019-02-09T12:56:30.430Z,4.90
2019-02-09T12:59:03.829Z,7.70
2019-02-09T13:01:39.903Z,5.40
2019-02-09T13:04:09.612Z,6.47
2019-02-09T13:06:40.748Z,6.27
2019-02-09T13:09:10.174Z,6.77
2019-02-09T13:11:39.411Z,4.20
2019-02-09T13:14:10.846Z,9.10
2019-02-09T13:16:41.666Z,10.20
2019-02-09T13:19:10.774Z,5.00
2019-02-09T13:21:41.498Z,11.23
2019-02-09T13:24:10.678Z,12.70
2019-02-09T13:26:40.109Z,11.70
2019-02-09T13:29:09.307Z,9.47
2019-02-09T13:31:38.707Z,9.33
2019-02-09T13:34:11.039Z,8.37
2019-02-09T13:36:41.934Z,9.20
2019-02-09T13:39:11.485Z,8.57
2019-02-09T13:41:43.189Z,10.13
2019-02-09T13:44:12.937Z,14.00
2019-02-09T13:46:43.775Z,8.07
2019-02-09T13:49:15.035Z,6.97
2019-02-09T13:51:44.508Z,9.27
2019-02-09T13:54:16.141Z,7.47
2019-02-09T13:56:48.559Z,10.97
2019-02-09T13:59:22.770Z,9.10
2019-02-09T14:01:52.271Z,11.80
2019-02-09T14:04:29.203Z,8.03
2019-02-09T14:06:59.879Z,11.63
2019-02-09T14:09:29.409Z,7.77
2019-02-09T14:11:58.479Z,7.30
2019-02-09T14:14:29.931Z,8.00
2019-02-09T14:17:00.896Z,8.47
2019-02-09T14:19:39.326Z,13.90
2019-02-09T14:22:11.639Z,8.67
2019-02-09T14:24:47.711Z,10.43
2019-02-09T14:27:20.159Z,9.37
2019-02-09T14:29:51.101Z,10.63
2019-02-09T14:32:24.192Z,6.77
2019-02-09T14:34:56.720Z,12.77
2019-02-09T14:37:44.563Z,10.03
2019-02-09T14:40:22.340Z,8.53
2019-02-09T14:42:55.195Z,8.33
2019-02-09T14:45:27.732Z,9.67
2019-02-09T14:47:58.034Z,11.20
2019-02-09T14:50:30.814Z,9.83
2019-02-09T14:53:02.434Z,7.57
2019-02-09T14:55:44.359Z,12.60
2019-02-09T14:58:16.893Z,8.43
2019-02-09T15:00:50.683Z,9.93
2019-02-09T15:03:28.156Z,8.03
2019-02-09T15:05:56.032Z,6.97
2019-02-09T15:08:28.690Z,10.07
2019-02-09T15:11:19.466Z,7.63
2019-02-09T15:14:07.461Z,12.73
2019-02-09T15:16:48.023Z,15.67
2019-02-09T15:19:18.369Z,10.93
2019-02-09T15:21:49.005Z,10.37
2019-02-09T15:24:21.547Z,9.43
2019-02-09T15:26:50.820Z,14.53
2019-02-09T15:29:20.281Z,9.50
2019-02-09T15:31:54.575Z,11.43
2019-02-09T15:34:23.844Z,13.23
2019-02-09T15:36:52.964Z,9.37
2019-02-09T15:39:22.079Z,8.57
2019-02-09T15:41:51.269Z,7.90
2019-02-09T15:44:20.411Z,8.60
2019-02-09T15:46:52.144Z,9.20
2019-02-09T15:49:23.340Z,4.80
2019-02-09T15:51:53.599Z,10.20
2019-02-09T15:54:23.002Z,9.70
2019-02-09T15:56:54.283Z,7.30
2019-02-09T15:59:26.216Z,8.63
2019-02-09T16:01:55.383Z,9.47
2019-02-09T16:04:24.669Z,12.10
2019-02-09T16:06:58.106Z,12.00
2019-02-09T16:09:28.644Z,8.57
2019-02-09T16:12:00.799Z,12.63
2019-02-09T16:14:31.166Z,9.10
2019-02-09T16:17:00.339Z,11.13
2019-02-09T16:19:31.031Z,11.30
2019-02-09T16:22:01.074Z,10.70
2019-02-09T16:24:31.061Z,8.80
2019-02-09T16:27:00.816Z,14.77
2019-02-09T16:29:31.312Z,15.67
2019-02-09T16:32:00.599Z,23.20
2019-02-09T16:34:32.427Z,15.97
2019-02-09T16:37:01.509Z,18.50
2019-02-09T16:39:31.926Z,21.57
2019-02-09T16:42:01.023Z,14.47
2019-02-09T16:44:30.161Z,13.90
2019-02-09T16:46:59.333Z,8.43
2019-02-09T16:49:28.630Z,11.97
2019-02-09T16:51:57.772Z,5.47
2019-02-09T16:54:26.960Z,11.10
2019-02-09T16:56:56.049Z,7.10
2019-02-09T16:59:26.941Z,10.20
2019-02-09T17:01:56.082Z,8.13
2019-02-09T17:04:25.180Z,5.97
2019-02-09T17:06:54.314Z,6.33
2019-02-09T17:09:23.425Z,8.10
2019-02-09T17:11:54.871Z,9.10
2019-02-09T17:14:23.922Z,8.80
2019-02-09T17:16:53.017Z,8.20
2019-02-09T17:19:24.411Z,12.10
2019-02-09T17:21:53.513Z,8.77
2019-02-09T17:24:22.640Z,10.87
2019-02-09T17:26:52.738Z,12.50
2019-02-09T17:29:21.886Z,8.63
2019-02-09T17:31:50.941Z,9.77
2019-02-09T17:34:21.856Z,9.10
2019-02-09T17:36:51.067Z,8.07
2019-02-09T17:39:20.215Z,12.97
2019-02-09T17:41:51.384Z,9.77
2019-02-09T17:44:20.524Z,10.87
2019-02-09T17:46:49.549Z,7.13
2019-02-09T17:49:18.705Z,11.13
2019-02-09T17:51:47.753Z,5.03
2019-02-09T17:54:16.857Z,9.40
2019-02-09T17:56:45.955Z,10.53
2019-02-09T17:59:15.125Z,6.57
2019-02-09T18:01:44.180Z,7.93
2019-02-09T18:04:16.883Z,13.50
2019-02-09T18:06:48.348Z,11.47
2019-02-09T18:09:18.763Z,12.63
2019-02-09T18:11:47.854Z,13.23
2019-02-09T18:14:17.501Z,12.70
2019-02-09T18:16:46.702Z,15.47
2019-02-09T18:19:15.854Z,12.30
2019-02-09T18:21:44.905Z,8.70
2019-02-09T18:24:14.063Z,10.57
2019-02-09T18:26:43.148Z,10.17
2019-02-09T18:29:12.462Z,13.00
2019-02-09T18:31:41.558Z,10.90
2019-02-09T18:34:10.774Z,13.13
2019-02-09T18:36:39.907Z,11.67
2019-02-09T18:39:12.804Z,13.60
2019-02-09T18:41:41.923Z,14.80
2019-02-09T18:44:11.194Z,14.73
2019-02-09T18:46:42.589Z,14.50
2019-02-09T18:49:13.062Z,12.73
2019-02-09T18:51:45.974Z,10.40
2019-02-09T18:54:20.567Z,12.60
2019-02-09T18:56:49.697Z,10.07
2019-02-09T18:59:20.224Z,11.23
2019-02-09T19:01:49.336Z,18.40
2019-02-09T19:04:18.533Z,17.23
2019-02-09T19:06:47.636Z,10.67
2019-02-09T19:09:17.840Z,18.20
2019-02-09T19:11:46.888Z,13.37
2019-02-09T19:14:16.014Z,17.00
2019-02-09T19:16:45.109Z,14.10
2019-02-09T19:19:14.180Z,14.67
2019-02-09T19:21:43.352Z,12.23
2019-02-09T19:24:13.359Z,16.67
2019-02-09T19:26:43.120Z,14.77
2019-02-09T19:29:12.234Z,10.07
2019-02-09T19:31:41.309Z,13.80
2019-02-09T19:34:12.374Z,17.93
2019-02-09T19:36:42.545Z,13.53
2019-02-09T19:39:11.760Z,20.43
2019-02-09T19:41:40.952Z,16.23
2019-02-09T19:44:10.188Z,14.67
2019-02-09T19:46:41.769Z,13.23
2019-02-09T19:49:10.828Z,15.53
2019-02-09T19:51:39.914Z,12.20
2019-02-09T19:54:10.749Z,11.90
2019-02-09T19:56:39.857Z,16.37
2019-02-09T19:59:08.950Z,14.10
2019-02-09T20:01:38.098Z,15.57
2019-02-09T20:04:07.229Z,17.73
2019-02-09T20:06:36.387Z,17.87
2019-02-09T20:09:08.061Z,13.20
2019-02-09T20:11:37.252Z,12.63
2019-02-09T20:14:06.507Z,12.13
2019-02-09T20:16:35.737Z,10.27
2019-02-09T20:19:04.808Z,13.97
2019-02-09T20:21:33.936Z,9.37
2019-02-09T20:24:03.004Z,16.00
2019-02-09T20:26:34.146Z,12.80
2019-02-09T20:29:03.247Z,17.87
2019-02-09T20:31:33.481Z,15.27
2019-02-09T20:34:02.581Z,16.43
2019-02-09T20:36:31.670Z,12.60
2019-02-09T20:39:04.698Z,16.30
2019-02-09T20:41:31.630Z,22.00
2019-02-09T20:44:00.698Z,14.80
2019-02-09T20:46:29.872Z,16.80
2019-02-09T20:49:00.640Z,11.83
2019-02-09T20:51:29.771Z,14.80
2019-02-09T20:53:58.864Z,14.80
2019-02-09T20:56:30.233Z,13.83
2019-02-09T20:59:00.353Z,15.60
2019-02-09T21:01:29.509Z,14.13
2019-02-09T21:04:00.622Z,17.53
2019-02-09T21:06:29.760Z,12.97
2019-02-09T21:08:58.826Z,14.93
2019-02-09T21:11:30.214Z,11.67
2019-02-09T21:13:59.301Z,11.03
2019-02-09T21:16:28.378Z,11.40
2019-02-09T21:18:57.629Z,11.07
2019-02-09T21:21:26.804Z,12.63
2019-02-09T21:23:55.947Z,19.00
2019-02-09T21:26:25.052Z,14.63
2019-02-09T21:28:54.069Z,11.87
2019-02-09T21:31:23.214Z,14.10
2019-02-09T21:33:52.300Z,11.57
2019-02-09T21:36:21.428Z,11.23
2019-02-09T21:38:50.568Z,16.30
2019-02-09T21:41:19.632Z,13.67
2019-02-09T21:43:48.765Z,10.70
2019-02-09T21:46:17.874Z,14.27
2019-02-09T21:48:48.000Z,9.70
2019-02-09T21:51:17.094Z,9.93
2019-02-09T21:53:46.195Z,14.07
2019-02-09T21:56:16.435Z,16.43
2019-02-09T21:58:47.123Z,17.83
2019-02-09T22:01:16.154Z,14.93
2019-02-09T22:03:45.345Z,17.43
2019-02-09T22:06:14.455Z,18.00
2019-02-09T22:08:43.587Z,18.70
2019-02-09T22:11:12.819Z,19.53
2019-02-09T22:13:41.967Z,18.73
2019-02-09T22:16:11.175Z,22.20
2019-02-09T22:18:40.455Z,16.50
2019-02-09T22:21:09.740Z,17.43
2019-02-09T22:23:38.926Z,15.17
2019-02-09T22:26:13.086Z,38.07
2019-02-09T22:28:38.825Z,13.70
2019-02-09T22:31:08.026Z,13.00
2019-02-09T22:33:37.086Z,15.53
2019-02-09T22:36:09.625Z,11.87
2019-02-09T22:38:38.789Z,16.57
2019-02-09T22:41:07.922Z,16.07
2019-02-09T22:43:37.108Z,16.30
2019-02-09T22:46:06.152Z,10.63
2019-02-09T22:48:35.287Z,13.93
2019-02-09T22:51:06.611Z,11.93
2019-02-09T22:53:35.683Z,12.73
2019-02-09T22:56:15.278Z,13.27
2019-02-09T22:58:54.032Z,10.20
2019-02-09T23:01:47.555Z,10.20
2019-02-09T23:04:45.604Z,8.03
2019-02-09T23:07:17.536Z,10.27
2019-02-09T23:09:47.531Z,12.93
2019-02-09T23:12:16.671Z,13.43
2019-02-09T23:14:45.826Z,10.77
2019-02-09T23:17:17.023Z,12.53
2019-02-09T23:19:46.171Z,11.00
2019-02-09T23:22:15.218Z,13.73
2019-02-09T23:24:44.314Z,10.77
2019-02-09T23:27:13.369Z,17.70
2019-02-09T23:29:42.511Z,21.90
2019-02-09T23:32:11.544Z,37.40
2019-02-09T23:34:40.655Z,16.33
2019-02-09T23:37:09.748Z,15.13
2019-02-09T23:39:38.878Z,7.07
2019-02-09T23:42:08.021Z,9.57
2019-02-09T23:44:38.382Z,12.43
2019-02-09T23:47:07.545Z,10.53
2019-02-09T23:49:36.625Z,10.47
2019-02-09T23:52:05.758Z,11.53
2019-02-09T23:54:34.793Z,13.57
2019-02-09T23:57:06.208Z,13.03
2019-02-09T23:59:36.330Z,11.60
